createdAt,value
2019-03-21T00:01:39.886Z,95.80
2019-03-21T00:04:12.415Z,95.40
2019-03-21T00:06:43.820Z,95.30
2019-03-21T00:09:16.170Z,95.20
2019-03-21T00:12:03.522Z,95.20
2019-03-21T00:14:55.486Z,95.20
2019-03-21T00:17:31.431Z,95.20
2019-03-21T00:20:01.723Z,95.40
2019-03-21T00:22:32.256Z,95.50
2019-03-21T00:25:02.522Z,95.30
2019-03-21T00:27:33.115Z,95.20
2019-03-21T00:30:03.477Z,95.30
2019-03-21T00:32:33.692Z,95.50
2019-03-21T00:35:04.047Z,95.60
2019-03-21T00:37:34.251Z,95.70
2019-03-21T00:40:05.316Z,95.60
2019-03-21T00:42:35.934Z,95.50
2019-03-21T00:45:06.879Z,95.40
2019-03-21T00:47:37.093Z,95.40
2019-03-21T00:50:08.865Z,95.30
2019-03-21T00:52:39.064Z,95.30
2019-03-21T00:55:10.824Z,95.30
2019-03-21T00:57:41.032Z,95.40
2019-03-21T01:00:15.575Z,95.60
2019-03-21T01:02:45.856Z,96.00
2019-03-21T01:05:16.088Z,95.50
2019-03-21T01:07:46.977Z,95.30
2019-03-21T01:10:18.142Z,95.30
2019-03-21T01:12:48.429Z,95.70
2019-03-21T01:15:18.640Z,95.40
2019-03-21T01:17:48.931Z,95.40
2019-03-21T01:20:19.143Z,95.30
2019-03-21T01:22:49.357Z,95.20
2019-03-21T01:25:23.036Z,95.40
2019-03-21T01:27:53.247Z,95.40
2019-03-21T01:30:23.836Z,95.20
2019-03-21T01:32:54.080Z,95.30
2019-03-21T01:35:24.358Z,95.10
2019-03-21T01:37:54.640Z,95.20
2019-03-21T01:40:25.806Z,95.00
2019-03-21T01:42:56.007Z,95.20
2019-03-21T01:45:26.363Z,95.20
2019-03-21T01:47:57.572Z,95.10
2019-03-21T01:50:27.900Z,95.10
2019-03-21T01:52:58.123Z,95.20
2019-03-21T01:55:28.316Z,95.20
2019-03-21T01:57:58.600Z,95.20
2019-03-21T02:00:31.551Z,95.30
2019-03-21T02:03:01.836Z,95.30
2019-03-21T02:05:32.100Z,95.30
2019-03-21T02:08:02.389Z,95.30
2019-03-21T02:10:32.990Z,95.40
2019-03-21T02:13:03.216Z,95.40
2019-03-21T02:15:35.123Z,95.60
2019-03-21T02:18:06.382Z,95.60
2019-03-21T02:20:36.944Z,95.60
2019-03-21T02:23:07.156Z,95.80
2019-03-21T02:25:37.446Z,95.80
2019-03-21T02:28:07.962Z,95.70
2019-03-21T02:30:38.521Z,95.70
2019-03-21T02:33:21.194Z,94.90
2019-03-21T02:35:51.403Z,95.00
2019-03-21T02:38:21.708Z,95.00
2019-03-21T02:40:52.371Z,95.00
2019-03-21T02:43:22.589Z,95.30
2019-03-21T02:45:52.830Z,95.30
2019-03-21T02:48:23.040Z,95.40
2019-03-21T02:50:53.271Z,95.40
2019-03-21T02:53:23.539Z,95.50
2019-03-21T02:55:53.862Z,95.50
2019-03-21T02:58:24.082Z,95.40
2019-03-21T03:00:54.385Z,95.40
2019-03-21T03:03:24.678Z,95.60
2019-03-21T03:05:54.885Z,95.50
2019-03-21T03:08:25.088Z,95.40
2019-03-21T03:10:55.577Z,95.40
2019-03-21T03:13:25.790Z,95.30
2019-03-21T03:15:56.444Z,95.30
2019-03-21T03:18:26.926Z,95.40
2019-03-21T03:20:57.129Z,95.30
2019-03-21T03:23:27.515Z,95.30
2019-03-21T03:25:57.788Z,95.20
2019-03-21T03:28:28.044Z,95.10
2019-03-21T03:30:58.400Z,94.90
2019-03-21T03:33:28.857Z,94.90
2019-03-21T03:35:59.403Z,95.00
2019-03-21T03:38:29.895Z,95.00
2019-03-21T03:41:00.768Z,95.00
2019-03-21T03:43:31.544Z,95.00
2019-03-21T03:46:01.761Z,95.00
2019-03-21T03:48:32.042Z,95.10
2019-03-21T03:51:02.507Z,95.10
2019-03-21T03:53:32.727Z,95.10
2019-03-21T03:56:03.052Z,95.10
2019-03-21T03:58:33.660Z,95.00
2019-03-21T04:01:04.216Z,95.10
2019-03-21T04:03:34.631Z,95.20
2019-03-21T04:06:05.254Z,95.10
2019-03-21T04:08:35.626Z,95.00
2019-03-21T04:11:06.560Z,95.10
2019-03-21T04:13:37.129Z,95.00
2019-03-21T04:16:07.396Z,95.00
2019-03-21T04:18:37.636Z,95.10
2019-03-21T04:21:08.152Z,95.00
2019-03-21T04:23:38.651Z,95.00
2019-03-21T04:26:21.613Z,95.00
2019-03-21T04:28:51.889Z,94.90
2019-03-21T04:31:22.173Z,95.00
2019-03-21T04:33:54.258Z,94.90
2019-03-21T04:36:24.530Z,94.90
2019-03-21T04:38:54.805Z,94.90
2019-03-21T04:41:25.017Z,94.90
2019-03-21T04:43:55.494Z,95.00
2019-03-21T04:46:25.930Z,94.90
2019-03-21T04:48:56.198Z,95.00
2019-03-21T04:51:26.476Z,95.10
2019-03-21T04:53:56.761Z,95.10
2019-03-21T04:56:26.980Z,95.20
2019-03-21T04:58:58.520Z,95.20
2019-03-21T05:01:28.730Z,95.10
2019-03-21T05:03:58.941Z,95.10
2019-03-21T05:06:29.207Z,95.10
2019-03-21T05:08:59.411Z,95.10
2019-03-21T05:11:29.739Z,95.20
2019-03-21T05:14:00.295Z,95.10
2019-03-21T05:16:31.542Z,94.90
2019-03-21T05:19:01.835Z,95.10
2019-03-21T05:21:32.341Z,94.90
2019-03-21T05:24:02.887Z,95.00
2019-03-21T05:26:33.091Z,95.20
2019-03-21T05:29:03.310Z,94.90
2019-03-21T05:31:34.588Z,94.90
2019-03-21T05:34:05.028Z,95.00
2019-03-21T05:36:35.236Z,94.90
2019-03-21T05:39:08.312Z,94.90
2019-03-21T05:41:38.620Z,95.00
2019-03-21T05:44:20.545Z,94.90
2019-03-21T05:46:51.087Z,94.90
2019-03-21T05:49:21.351Z,94.90
2019-03-21T05:51:51.739Z,94.90
2019-03-21T05:54:21.934Z,94.90
2019-03-21T05:56:52.139Z,94.80
2019-03-21T05:59:22.334Z,94.70
2019-03-21T06:01:52.587Z,94.80
2019-03-21T06:04:22.854Z,94.70
2019-03-21T06:07:34.070Z,94.90
2019-03-21T06:10:05.576Z,94.80
2019-03-21T06:12:42.238Z,94.90
2019-03-21T06:15:13.491Z,94.90
2019-03-21T06:17:44.671Z,94.90
2019-03-21T06:20:36.236Z,94.80
2019-03-21T06:23:34.768Z,94.60
2019-03-21T06:26:20.760Z,94.80
2019-03-21T06:28:51.471Z,94.80
2019-03-21T06:31:22.023Z,94.50
2019-03-21T06:33:52.226Z,94.40
2019-03-21T06:36:22.489Z,94.30
2019-03-21T06:38:52.819Z,94.10
2019-03-21T06:41:23.024Z,94.40
2019-03-21T06:43:53.236Z,94.30
2019-03-21T06:46:23.440Z,94.20
2019-03-21T06:48:53.647Z,94.40
2019-03-21T06:51:23.915Z,94.40
2019-03-21T06:53:54.476Z,94.30
2019-03-21T06:56:24.752Z,94.20
2019-03-21T06:58:56.048Z,93.90
2019-03-21T07:01:26.486Z,94.10
2019-03-21T07:04:06.659Z,94.00
2019-03-21T07:06:28.623Z,94.10
2019-03-21T07:08:58.827Z,94.00
2019-03-21T07:11:29.043Z,93.60
2019-03-21T07:13:59.484Z,93.90
2019-03-21T07:16:29.692Z,93.90
2019-03-21T07:18:59.907Z,94.30
2019-03-21T07:21:30.311Z,94.30
2019-03-21T07:24:00.602Z,94.10
2019-03-21T07:26:31.060Z,94.60
2019-03-21T07:29:01.429Z,94.20
2019-03-21T07:31:31.754Z,94.10
2019-03-21T07:34:02.080Z,94.10
2019-03-21T07:36:32.466Z,94.10
2019-03-21T07:39:04.013Z,94.10
2019-03-21T07:41:34.235Z,94.10
2019-03-21T07:44:04.684Z,93.90
2019-03-21T07:46:34.933Z,93.90
2019-03-21T07:49:05.268Z,93.80
2019-03-21T07:51:35.799Z,94.00
2019-03-21T07:54:06.148Z,93.40
2019-03-21T07:56:36.524Z,93.90
2019-03-21T07:59:06.876Z,93.50
2019-03-21T08:01:37.444Z,93.50
2019-03-21T08:04:07.695Z,93.70
2019-03-21T08:06:38.254Z,93.90
2019-03-21T08:09:08.932Z,93.70
2019-03-21T08:11:39.131Z,93.60
2019-03-21T08:14:09.594Z,93.90
2019-03-21T08:16:39.820Z,93.70
2019-03-21T08:19:10.092Z,93.50
2019-03-21T08:21:40.964Z,93.60
2019-03-21T08:24:11.181Z,93.80
2019-03-21T08:26:41.952Z,93.60
2019-03-21T08:29:12.411Z,93.60
2019-03-21T08:31:42.872Z,93.40
2019-03-21T08:34:13.085Z,93.60
2019-03-21T08:36:43.356Z,93.70
2019-03-21T08:39:13.661Z,93.50
2019-03-21T08:41:44.011Z,93.60
2019-03-21T08:44:15.147Z,93.40
2019-03-21T08:46:45.456Z,93.50
2019-03-21T08:49:16.119Z,93.70
2019-03-21T08:51:46.411Z,93.40
2019-03-21T08:54:16.999Z,93.50
2019-03-21T08:56:47.295Z,93.80
2019-03-21T08:59:20.978Z,93.60
2019-03-21T09:01:51.439Z,93.40
2019-03-21T09:04:21.653Z,93.50
2019-03-21T09:06:52.862Z,93.60
2019-03-21T09:09:23.832Z,93.40
2019-03-21T09:11:54.139Z,93.70
2019-03-21T09:14:24.391Z,93.90
2019-03-21T09:16:54.880Z,93.50
2019-03-21T09:19:25.116Z,93.20
2019-03-21T09:21:55.395Z,93.40
2019-03-21T09:24:25.688Z,93.20
2019-03-21T09:26:55.953Z,93.50
2019-03-21T09:29:26.159Z,93.50
2019-03-21T09:31:56.395Z,93.70
2019-03-21T09:34:27.762Z,93.70
2019-03-21T09:36:58.149Z,93.50
2019-03-21T09:39:28.347Z,93.50
2019-03-21T09:41:58.559Z,93.50
2019-03-21T09:44:29.492Z,93.80
2019-03-21T09:47:00.043Z,93.90
2019-03-21T09:49:30.240Z,93.40
2019-03-21T09:52:00.517Z,93.60
2019-03-21T09:54:30.743Z,93.80
2019-03-21T09:57:00.956Z,94.10
2019-03-21T09:59:31.162Z,94.50
2019-03-21T10:02:01.373Z,94.80
2019-03-21T10:04:32.623Z,95.20
2019-03-21T10:07:03.468Z,95.40
2019-03-21T10:09:33.683Z,95.40
2019-03-21T10:12:04.383Z,95.60
2019-03-21T10:14:34.573Z,95.80
2019-03-21T10:17:04.939Z,95.90
2019-03-21T10:19:35.140Z,96.00
2019-03-21T10:22:05.619Z,95.80
2019-03-21T10:24:35.832Z,95.70
2019-03-21T10:27:06.123Z,95.50
2019-03-21T10:29:36.315Z,95.50
2019-03-21T10:32:14.168Z,95.50
2019-03-21T10:34:38.594Z,94.90
2019-03-21T10:37:08.905Z,94.90
2019-03-21T10:39:39.104Z,94.40
2019-03-21T10:42:09.450Z,94.70
2019-03-21T10:44:39.657Z,94.60
2019-03-21T10:47:10.218Z,94.70
2019-03-21T10:49:41.461Z,94.80
2019-03-21T10:52:11.773Z,94.60
2019-03-21T10:54:42.063Z,94.70
2019-03-21T10:57:12.343Z,94.70
2019-03-21T10:59:42.559Z,94.40
2019-03-21T11:02:13.062Z,94.50
2019-03-21T11:04:44.167Z,94.30
2019-03-21T11:07:12.725Z,94.60
2019-03-21T11:09:42.924Z,94.40
2019-03-21T11:12:13.189Z,94.40
2019-03-21T11:14:44.708Z,94.60
2019-03-21T11:17:15.268Z,95.10
2019-03-21T11:19:45.476Z,94.30
2019-03-21T11:22:15.708Z,94.10
2019-03-21T11:24:45.923Z,94.30
2019-03-21T11:27:17.099Z,94.30
2019-03-21T11:29:47.755Z,94.40
2019-03-21T11:32:18.288Z,94.40
2019-03-21T11:34:48.564Z,94.20
2019-03-21T11:37:18.892Z,94.50
2019-03-21T11:39:49.632Z,94.00
2019-03-21T11:42:19.835Z,93.90
2019-03-21T11:44:50.145Z,94.30
2019-03-21T11:47:20.456Z,93.80
2019-03-21T11:49:50.652Z,93.70
2019-03-21T11:52:21.011Z,92.70
2019-03-21T11:54:51.504Z,93.40
2019-03-21T11:57:21.716Z,93.60
2019-03-21T11:59:52.546Z,93.20
2019-03-21T12:02:27.355Z,93.10
2019-03-21T12:04:54.702Z,92.80
2019-03-21T12:07:26.034Z,92.90
2019-03-21T12:09:57.255Z,92.90
2019-03-21T12:12:27.453Z,92.80
2019-03-21T12:14:57.740Z,92.90
2019-03-21T12:17:27.965Z,92.90
2019-03-21T12:19:58.525Z,93.10
2019-03-21T12:22:30.423Z,92.50
2019-03-21T12:25:00.992Z,92.70
2019-03-21T12:27:31.256Z,91.70
2019-03-21T12:30:01.466Z,92.20
2019-03-21T12:32:31.722Z,92.20
2019-03-21T12:35:02.107Z,92.10
2019-03-21T12:37:32.310Z,91.30
2019-03-21T12:40:02.595Z,91.70
2019-03-21T12:42:32.887Z,91.80
2019-03-21T12:45:03.415Z,92.20
2019-03-21T12:47:33.782Z,91.10
2019-03-21T12:50:05.229Z,91.70
2019-03-21T12:52:41.420Z,91.50
2019-03-21T12:55:08.107Z,91.00
2019-03-21T12:57:38.317Z,91.30
2019-03-21T13:00:09.326Z,91.30
2019-03-21T13:02:39.668Z,91.30
2019-03-21T13:05:11.656Z,90.90
2019-03-21T13:07:42.372Z,91.20
2019-03-21T13:10:12.735Z,90.40
2019-03-21T13:12:42.946Z,90.20
2019-03-21T13:15:13.158Z,90.60
2019-03-21T13:17:43.363Z,90.00
2019-03-21T13:20:13.645Z,90.10
2019-03-21T13:22:52.561Z,90.50
2019-03-21T13:25:15.848Z,90.70
2019-03-21T13:27:46.044Z,90.50
2019-03-21T13:30:16.852Z,90.80
2019-03-21T13:32:47.272Z,90.40
2019-03-21T13:35:17.720Z,90.40
2019-03-21T13:37:47.932Z,90.40
2019-03-21T13:40:18.212Z,89.40
2019-03-21T13:42:48.576Z,89.80
2019-03-21T13:45:19.112Z,90.00
2019-03-21T13:47:49.690Z,90.10
2019-03-21T13:50:19.896Z,89.70
2019-03-21T13:52:50.269Z,90.00
2019-03-21T13:55:21.474Z,90.00
2019-03-21T13:57:51.712Z,89.30
2019-03-21T14:00:22.460Z,90.00
2019-03-21T14:02:52.655Z,89.70
2019-03-21T14:05:23.240Z,90.20
2019-03-21T14:07:53.546Z,88.60
2019-03-21T14:10:24.133Z,89.30
2019-03-21T14:12:54.420Z,89.70
2019-03-21T14:15:25.928Z,89.70
2019-03-21T14:17:56.197Z,90.00
2019-03-21T14:20:26.707Z,89.80
2019-03-21T14:22:56.920Z,90.30
2019-03-21T14:25:27.455Z,89.20
2019-03-21T14:27:57.729Z,89.50
2019-03-21T14:30:28.052Z,89.10
2019-03-21T14:32:58.252Z,89.20
2019-03-21T14:35:29.472Z,89.10
2019-03-21T14:37:59.956Z,89.80
2019-03-21T14:40:30.555Z,89.30
2019-03-21T14:43:01.325Z,89.30
2019-03-21T14:45:32.079Z,89.50
2019-03-21T14:48:02.275Z,89.60
2019-03-21T14:50:32.485Z,89.30
2019-03-21T14:53:02.808Z,89.10
2019-03-21T14:55:34.223Z,89.10
2019-03-21T14:58:04.516Z,89.00
2019-03-21T15:00:35.039Z,89.10
2019-03-21T15:03:05.260Z,89.50
2019-03-21T15:05:35.944Z,89.70
2019-03-21T15:08:06.246Z,88.80
2019-03-21T15:10:36.511Z,89.50
2019-03-21T15:13:06.720Z,90.00
2019-03-21T15:15:37.201Z,89.20
2019-03-21T15:18:07.416Z,89.60
2019-03-21T15:20:37.640Z,90.00
2019-03-21T15:23:07.844Z,89.50
2019-03-21T15:25:38.131Z,89.90
2019-03-21T15:28:08.457Z,90.10
2019-03-21T15:30:38.860Z,90.00
2019-03-21T15:33:09.059Z,90.20
2019-03-21T15:35:39.267Z,90.10
2019-03-21T15:38:10.507Z,90.20
2019-03-21T15:40:40.855Z,90.20
2019-03-21T15:43:11.482Z,90.30
2019-03-21T15:45:41.687Z,90.30
2019-03-21T15:48:12.217Z,90.10
2019-03-21T15:50:42.435Z,90.40
2019-03-21T15:53:12.710Z,90.40
2019-03-21T15:55:42.902Z,90.40
2019-03-21T15:58:13.254Z,90.50
2019-03-21T16:00:44.183Z,90.60
2019-03-21T16:03:14.644Z,90.50
2019-03-21T16:05:44.927Z,90.50
2019-03-21T16:08:15.153Z,90.60
2019-03-21T16:10:45.351Z,90.50
2019-03-21T16:13:15.594Z,90.70
2019-03-21T16:15:45.785Z,90.80
2019-03-21T16:18:16.232Z,90.70
2019-03-21T16:20:46.443Z,90.30
2019-03-21T16:23:16.644Z,90.50
2019-03-21T16:25:48.676Z,90.50
2019-03-21T16:28:20.284Z,90.30
2019-03-21T16:30:50.697Z,90.20
2019-03-21T16:33:20.976Z,90.40
2019-03-21T16:35:51.207Z,90.10
2019-03-21T16:38:21.774Z,90.20
2019-03-21T16:40:51.973Z,90.40
2019-03-21T16:43:23.136Z,90.50
2019-03-21T16:45:53.688Z,90.70
2019-03-21T16:48:23.897Z,90.70
2019-03-21T16:50:54.415Z,90.90
2019-03-21T16:53:24.691Z,91.00
2019-03-21T16:55:54.896Z,90.90
2019-03-21T16:58:25.135Z,91.10
2019-03-21T17:00:55.351Z,91.00
2019-03-21T17:03:25.628Z,90.90
2019-03-21T17:05:55.910Z,91.10
2019-03-21T17:08:26.167Z,91.20
2019-03-21T17:10:56.488Z,90.90
2019-03-21T17:13:27.331Z,91.00
2019-03-21T17:15:57.856Z,91.10
2019-03-21T17:18:28.695Z,91.10
2019-03-21T17:20:59.131Z,91.40
2019-03-21T17:23:29.477Z,91.50
2019-03-21T17:25:59.784Z,91.20
2019-03-21T17:28:30.351Z,91.30
2019-03-21T17:31:00.561Z,91.30
2019-03-21T17:33:30.824Z,91.50
2019-03-21T17:36:01.435Z,91.50
2019-03-21T17:38:31.703Z,91.50
2019-03-21T17:41:02.009Z,91.50
2019-03-21T17:43:32.463Z,91.50
2019-03-21T17:46:02.925Z,91.30
2019-03-21T17:48:33.132Z,91.40
2019-03-21T17:51:03.751Z,91.60
2019-03-21T17:53:33.952Z,91.80
2019-03-21T17:56:04.500Z,91.60
2019-03-21T17:58:34.695Z,91.40
2019-03-21T18:01:05.297Z,91.20
2019-03-21T18:03:35.847Z,90.90
2019-03-21T18:06:06.051Z,91.10
2019-03-21T18:08:36.266Z,91.30
2019-03-21T18:11:06.552Z,91.40
2019-03-21T18:13:36.840Z,91.00
2019-03-21T18:16:07.123Z,91.00
2019-03-21T18:18:37.368Z,91.00
2019-03-21T18:21:07.584Z,91.10
2019-03-21T18:23:37.779Z,91.20
2019-03-21T18:26:08.071Z,91.20
2019-03-21T18:28:38.573Z,91.10
2019-03-21T18:31:08.976Z,91.20
2019-03-21T18:33:39.175Z,91.20
2019-03-21T18:36:09.574Z,91.30
2019-03-21T18:38:40.129Z,91.50
2019-03-21T18:41:10.440Z,91.60
2019-03-21T18:43:40.888Z,91.70
2019-03-21T18:46:11.499Z,91.80
2019-03-21T18:48:41.898Z,91.80
2019-03-21T18:51:12.241Z,91.60
2019-03-21T18:53:42.700Z,91.90
2019-03-21T18:56:12.923Z,91.90
2019-03-21T18:58:44.255Z,91.90
2019-03-21T19:01:14.464Z,92.00
2019-03-21T19:03:44.676Z,92.10
2019-03-21T19:06:14.875Z,92.20
2019-03-21T19:08:45.584Z,92.20
2019-03-21T19:11:15.863Z,92.10
2019-03-21T19:13:46.088Z,92.10
2019-03-21T19:16:16.315Z,92.40
2019-03-21T19:18:46.876Z,92.00
2019-03-21T19:21:17.097Z,92.20
2019-03-21T19:23:47.844Z,92.10
2019-03-21T19:26:18.224Z,92.10
2019-03-21T19:28:48.677Z,92.20
2019-03-21T19:31:18.976Z,92.40
2019-03-21T19:33:49.265Z,92.50
2019-03-21T19:36:19.827Z,92.90
2019-03-21T19:38:50.406Z,92.20
2019-03-21T19:41:20.956Z,92.20
2019-03-21T19:43:51.156Z,92.50
2019-03-21T19:46:21.452Z,92.60
2019-03-21T19:48:51.669Z,92.80
2019-03-21T19:51:21.968Z,92.80
2019-03-21T19:53:52.495Z,92.90
2019-03-21T19:56:23.056Z,92.90
2019-03-21T19:58:53.269Z,92.90
2019-03-21T20:01:23.475Z,93.00
2019-03-21T20:03:53.688Z,93.00
2019-03-21T20:06:24.228Z,93.10
2019-03-21T20:08:56.761Z,93.20
2019-03-21T20:11:26.356Z,93.40
2019-03-21T20:13:56.632Z,93.50
2019-03-21T20:16:26.876Z,93.70
2019-03-21T20:18:57.163Z,93.60
2019-03-21T20:21:27.359Z,93.50
2019-03-21T20:23:57.676Z,93.60
2019-03-21T20:26:27.935Z,93.40
2019-03-21T20:28:58.558Z,93.40
2019-03-21T20:31:28.847Z,93.70
2019-03-21T20:33:59.345Z,93.80
2019-03-21T20:36:29.543Z,94.00
2019-03-21T20:38:59.996Z,93.90
2019-03-21T20:41:30.200Z,93.90
2019-03-21T20:44:00.409Z,94.00
2019-03-21T20:46:30.612Z,94.00
2019-03-21T20:48:58.987Z,93.90
2019-03-21T20:51:29.183Z,93.90
2019-03-21T20:53:59.463Z,93.80
2019-03-21T20:56:29.669Z,93.90
2019-03-21T20:58:59.878Z,93.80
2019-03-21T21:01:30.176Z,94.00
2019-03-21T21:04:00.610Z,94.00
2019-03-21T21:06:30.949Z,94.10
2019-03-21T21:09:01.188Z,94.50
2019-03-21T21:11:35.112Z,94.30
2019-03-21T21:14:05.456Z,93.80
2019-03-21T21:16:36.042Z,94.50
2019-03-21T21:19:06.264Z,94.30
2019-03-21T21:21:36.521Z,94.30
2019-03-21T21:24:07.147Z,94.40
2019-03-21T21:26:37.343Z,94.20
2019-03-21T21:29:07.565Z,94.60
2019-03-21T21:31:37.900Z,94.50
2019-03-21T21:34:08.184Z,94.50
2019-03-21T21:36:39.231Z,94.60
2019-03-21T21:39:09.459Z,94.80
2019-03-21T21:41:39.859Z,95.00
2019-03-21T21:44:10.104Z,95.00
2019-03-21T21:46:40.303Z,95.10
2019-03-21T21:49:13.026Z,94.90
2019-03-21T21:51:42.487Z,95.10
2019-03-21T21:54:12.692Z,95.00
2019-03-21T21:56:42.932Z,95.30
2019-03-21T21:59:13.210Z,95.50
2019-03-21T22:01:44.243Z,95.70
2019-03-21T22:04:14.452Z,95.50
2019-03-21T22:06:44.735Z,95.80
2019-03-21T22:09:14.931Z,95.60
2019-03-21T22:11:45.482Z,95.50
2019-03-21T22:14:15.932Z,95.40
2019-03-21T22:16:46.795Z,95.70
2019-03-21T22:19:17.008Z,95.70
2019-03-21T22:21:47.219Z,95.90
2019-03-21T22:24:17.659Z,96.10
2019-03-21T22:26:47.883Z,96.20
2019-03-21T22:29:18.091Z,96.10
2019-03-21T22:31:48.307Z,96.20
2019-03-21T22:34:19.105Z,96.40
2019-03-21T22:36:50.743Z,96.50
2019-03-21T22:39:20.944Z,96.60
2019-03-21T22:41:51.145Z,96.50
2019-03-21T22:44:21.655Z,96.70
2019-03-21T22:46:51.923Z,96.80
2019-03-21T22:49:22.204Z,96.70
2019-03-21T22:51:52.411Z,96.90
2019-03-21T22:54:22.624Z,96.50
2019-03-21T22:56:52.873Z,96.80
2019-03-21T22:59:23.079Z,97.00
2019-03-21T23:01:53.354Z,96.40
2019-03-21T23:04:23.925Z,96.60
2019-03-21T23:06:54.430Z,96.60
2019-03-21T23:09:26.168Z,96.70
2019-03-21T23:11:56.415Z,96.60
2019-03-21T23:14:28.332Z,96.50
2019-03-21T23:16:58.540Z,96.50
2019-03-21T23:19:28.759Z,96.60
2019-03-21T23:21:59.099Z,96.70
2019-03-21T23:24:29.336Z,96.70
2019-03-21T23:27:00.523Z,96.50
2019-03-21T23:29:30.901Z,96.50
2019-03-21T23:32:01.435Z,96.40
2019-03-21T23:34:31.640Z,96.40
2019-03-21T23:37:01.895Z,96.20
2019-03-21T23:39:33.068Z,96.20
2019-03-21T23:42:03.588Z,96.10
2019-03-21T23:44:34.443Z,96.00
2019-03-21T23:47:04.704Z,95.90
2019-03-21T23:49:35.220Z,95.90
2019-03-21T23:52:06.180Z,96.00
2019-03-21T23:54:36.711Z,96.00
2019-03-21T23:57:06.935Z,96.00
2019-03-21T23:59:37.148Z,96.10
